Time;durP1;ratioP1;P1;durP2;ratioP2;P2;SDS_P1;SDS_P2;PMS_P1;PMS_P2;Temp;Humidity;BMP_temperature;BMP_pressure;BME280_temperature;BME280_humidity;BME280_pressure;Samples;Min_cycle;Max_cycle;Signal;HPM_P1;HPM_P2
2022/03/13 00:00:47;;;;;;;25.13;19.80;;;2.60;99.90;;;;;;5036973;28;20524;-65
2022/03/13 00:03:15;;;;;;;26.17;21.13;;;2.60;99.90;;;;;;5040265;28;20483;-66
2022/03/13 00:05:45;;;;;;;25.73;20.60;;;2.70;99.90;;;;;;5040806;28;20531;-65
2022/03/13 00:08:22;;;;;;;29.43;19.77;;;2.70;99.90;;;;;;5045242;28;20455;-65
2022/03/13 00:10:56;;;;;;;28.37;21.53;;;2.70;99.90;;;;;;5047072;28;20436;-64
2022/03/13 00:13:29;;;;;;;28.47;20.67;;;2.70;99.90;;;;;;5042841;28;20455;-64
2022/03/13 00:15:56;;;;;;;30.60;20.73;;;2.60;99.90;;;;;;5039198;28;20480;-64
2022/03/13 00:18:23;;;;;;;28.57;20.40;;;2.40;99.90;;;;;;5028043;28;20459;-64
2022/03/13 00:20:51;;;;;;;29.23;21.87;;;2.30;99.90;;;;;;5036304;28;20442;-64
2022/03/13 00:23:19;;;;;;;26.03;20.03;;;2.30;99.90;;;;;;5046061;28;20491;-64
2022/03/13 00:25:46;;;;;;;30.00;20.10;;;2.20;99.90;;;;;;5038555;28;20814;-65
2022/03/13 00:28:13;;;;;;;30.97;21.97;;;2.30;99.90;;;;;;5037177;28;20455;-64
2022/03/13 00:30:40;;;;;;;27.53;20.20;;;2.30;99.90;;;;;;5047559;28;20459;-64
2022/03/13 00:33:08;;;;;;;32.63;21.40;;;2.30;99.90;;;;;;5047533;28;21021;-64
2022/03/13 00:35:37;;;;;;;27.53;20.67;;;2.30;99.90;;;;;;5040247;28;20481;-65
2022/03/13 00:38:06;;;;;;;26.27;21.03;;;2.20;99.90;;;;;;5039108;28;20527;-64
2022/03/13 00:40:33;;;;;;;28.23;20.50;;;2.20;99.90;;;;;;5047054;28;20448;-64
2022/03/13 00:43:00;;;;;;;28.30;21.33;;;2.10;99.90;;;;;;5044309;28;20471;-65
2022/03/13 00:45:28;;;;;;;26.07;20.87;;;2.00;99.90;;;;;;5048955;28;20441;-65
2022/03/13 00:47:54;;;;;;;27.80;21.17;;;2.00;99.90;;;;;;5050001;28;20486;-64
2022/03/13 00:50:22;;;;;;;29.67;20.37;;;2.20;99.90;;;;;;5049836;28;20929;-64
2022/03/13 00:52:49;;;;;;;29.60;22.00;;;2.20;99.90;;;;;;5050600;28;20533;-64
2022/03/13 00:55:17;;;;;;;32.80;22.47;;;2.30;99.90;;;;;;5045553;28;20475;-67
2022/03/13 00:57:44;;;;;;;29.27;21.80;;;2.30;99.90;;;;;;5036925;28;20445;-64
2022/03/13 01:00:13;;;;;;;29.37;22.17;;;2.20;99.90;;;;;;5039089;28;20439;-64
2022/03/13 01:02:40;;;;;;;36.40;23.17;;;2.00;99.90;;;;;;5043290;28;20475;-64
2022/03/13 01:05:09;;;;;;;33.20;22.30;;;1.90;99.90;;;;;;5049118;28;20448;-64
2022/03/13 01:07:36;;;;;;;34.20;22.90;;;1.90;99.90;;;;;;5047859;28;20435;-64
2022/03/13 01:10:06;;;;;;;28.10;20.70;;;1.90;99.90;;;;;;5049209;28;20462;-64
2022/03/13 01:12:35;;;;;;;26.90;22.03;;;1.80;99.90;;;;;;5049083;28;20573;-64
2022/03/13 01:15:02;;;;;;;34.27;21.70;;;1.70;99.90;;;;;;5047599;28;20488;-64
2022/03/13 01:17:29;;;;;;;30.23;21.27;;;1.70;99.90;;;;;;5050031;28;20857;-64
2022/03/13 01:19:56;;;;;;;31.97;23.33;;;1.70;99.90;;;;;;5050301;28;20960;-64
2022/03/13 01:22:23;;;;;;;33.27;23.40;;;1.70;99.90;;;;;;5050424;28;20967;-65
2022/03/13 01:24:51;;;;;;;31.27;21.53;;;1.60;99.90;;;;;;5049266;28;20442;-63
2022/03/13 01:27:19;;;;;;;36.97;24.50;;;1.60;99.90;;;;;;5041688;28;20440;-63
2022/03/13 01:29:47;;;;;;;28.87;20.93;;;1.50;99.90;;;;;;5030568;28;20946;-63
2022/03/13 01:32:15;;;;;;;32.97;21.50;;;1.40;99.90;;;;;;5032742;28;20527;-63
2022/03/13 01:34:50;;;;;;;30.77;22.70;;;1.40;99.90;;;;;;5036887;28;20476;-63
2022/03/13 01:37:27;;;;;;;28.10;20.97;;;1.30;99.90;;;;;;5057659;28;20790;-63
2022/03/13 01:39:54;;;;;;;26.23;19.87;;;1.30;99.90;;;;;;5060865;28;20454;-63
2022/03/13 01:42:20;;;;;;;34.53;21.03;;;1.20;99.90;;;;;;5051816;28;20467;-63
2022/03/13 01:44:49;;;;;;;31.30;22.10;;;1.20;99.90;;;;;;5042706;28;20447;-63
2022/03/13 01:47:16;;;;;;;30.57;22.50;;;1.20;99.90;;;;;;5049617;28;20448;-63
2022/03/13 01:49:43;;;;;;;30.47;22.50;;;1.20;99.90;;;;;;5049201;28;20444;-65
2022/03/13 01:52:10;;;;;;;29.20;22.00;;;1.30;99.90;;;;;;5049602;28;20464;-63
2022/03/13 01:54:39;;;;;;;33.00;21.23;;;1.30;99.90;;;;;;5047878;28;20460;-63
2022/03/13 01:57:06;;;;;;;28.93;21.53;;;1.20;99.90;;;;;;5034462;28;20464;-65
2022/03/13 01:59:33;;;;;;;33.50;19.53;;;1.30;99.90;;;;;;5029221;28;20453;-63
2022/03/13 02:02:02;;;;;;;31.70;20.67;;;1.20;99.90;;;;;;5029536;28;20477;-63
2022/03/13 02:04:32;;;;;;;31.20;21.23;;;1.20;99.90;;;;;;5029022;28;20448;-64
2022/03/13 02:06:59;;;;;;;27.70;19.93;;;1.10;99.90;;;;;;5029426;28;20453;-63
2022/03/13 02:09:27;;;;;;;27.50;20.00;;;1.10;99.90;;;;;;5029001;28;20445;-63
2022/03/13 02:11:55;;;;;;;33.90;22.70;;;1.00;99.90;;;;;;5028803;28;20472;-63
2022/03/13 02:14:24;;;;;;;32.03;21.40;;;0.90;99.90;;;;;;5028686;28;20445;-63
2022/03/13 02:16:53;;;;;;;32.80;24.40;;;0.90;99.90;;;;;;5028799;28;20484;-63
2022/03/13 02:19:22;;;;;;;34.23;22.70;;;1.00;99.90;;;;;;5028932;28;20536;-64
2022/03/13 02:21:51;;;;;;;30.60;22.50;;;0.90;99.90;;;;;;5028906;28;20545;-66
2022/03/13 02:24:24;;;;;;;27.57;21.00;;;0.90;99.90;;;;;;5031836;28;20749;-63
2022/03/13 02:26:59;;;;;;;33.30;22.70;;;0.90;99.90;;;;;;5047483;28;20440;-64
2022/03/13 02:29:27;;;;;;;31.03;21.93;;;0.90;99.90;;;;;;5049790;28;20443;-64
2022/03/13 02:31:54;;;;;;;35.37;21.63;;;1.00;99.90;;;;;;5049634;28;20467;-65
2022/03/13 02:34:22;;;;;;;28.53;20.20;;;1.00;99.90;;;;;;5049503;28;20436;-64
2022/03/13 02:37:02;;;;;;;30.57;21.90;;;0.90;99.90;;;;;;5049616;28;21264;-65
2022/03/13 02:39:36;;;;;;;33.57;21.23;;;0.80;99.90;;;;;;5049715;28;20440;-64
2022/03/13 02:42:05;;;;;;;28.97;20.50;;;0.80;99.90;;;;;;5049739;28;20455;-65
2022/03/13 02:44:32;;;;;;;32.93;21.77;;;0.80;99.90;;;;;;5049462;28;20432;-64
2022/03/13 02:47:01;;;;;;;27.00;21.60;;;0.80;99.90;;;;;;5050123;28;20436;-64
2022/03/13 02:49:31;;;;;;;29.20;22.70;;;0.70;99.90;;;;;;5049682;28;20451;-64
2022/03/13 02:52:00;;;;;;;26.50;19.87;;;0.60;99.90;;;;;;5049641;28;21301;-64
2022/03/13 02:54:27;;;;;;;34.03;22.07;;;0.50;99.90;;;;;;5049334;28;20613;-64
2022/03/13 02:56:56;;;;;;;30.63;21.93;;;0.60;99.90;;;;;;5049662;28;20976;-64
2022/03/13 02:59:23;;;;;;;31.67;21.63;;;0.50;99.90;;;;;;5049421;28;20447;-64
2022/03/13 03:01:50;;;;;;;27.90;21.03;;;0.50;99.90;;;;;;5049304;28;20555;-63
2022/03/13 03:04:18;;;;;;;31.47;21.13;;;0.60;99.90;;;;;;5049241;28;20446;-64
2022/03/13 03:06:56;;;;;;;31.63;21.13;;;0.60;99.90;;;;;;5052865;28;20470;-64
2022/03/13 03:09:24;;;;;;;34.00;21.77;;;0.50;99.90;;;;;;5053323;28;20447;-64
2022/03/13 03:11:51;;;;;;;30.67;21.40;;;0.50;99.90;;;;;;5053123;28;20455;-64
2022/03/13 03:14:20;;;;;;;26.37;19.40;;;0.40;99.90;;;;;;5053321;28;20440;-64
2022/03/13 03:16:48;;;;;;;32.80;22.50;;;0.40;99.90;;;;;;5053423;28;20524;-64
2022/03/13 03:19:15;;;;;;;29.30;19.57;;;0.40;99.90;;;;;;5053460;28;20432;-64
2022/03/13 03:21:42;;;;;;;32.40;23.10;;;0.20;99.90;;;;;;5053128;28;20456;-64
2022/03/13 03:24:18;;;;;;;32.83;21.57;;;0.20;99.90;;;;;;5053171;28;20875;-64
2022/03/13 03:26:45;;;;;;;29.97;21.87;;;0.20;99.90;;;;;;5053690;28;20526;-64
2022/03/13 03:29:12;;;;;;;32.13;21.80;;;0.20;99.90;;;;;;5053567;28;20431;-64
2022/03/13 03:31:44;;;;;;;29.43;21.20;;;0.20;99.90;;;;;;5053353;28;20542;-64
2022/03/13 03:34:13;;;;;;;27.97;21.53;;;0.20;99.90;;;;;;5053190;28;20436;-64
2022/03/13 03:36:42;;;;;;;30.40;20.33;;;0.10;99.90;;;;;;5052818;28;20471;-63
2022/03/13 03:39:10;;;;;;;31.87;20.80;;;0.10;99.90;;;;;;5053179;28;20443;-64
2022/03/13 03:41:37;;;;;;;28.43;20.30;;;0.10;99.90;;;;;;5052669;28;20455;-65
2022/03/13 03:44:04;;;;;;;33.10;20.50;;;0.20;99.90;;;;;;5052424;28;20956;-64
2022/03/13 03:46:31;;;;;;;32.63;23.37;;;0.20;99.90;;;;;;5052584;28;20440;-65
2022/03/13 03:48:59;;;;;;;31.30;20.40;;;0.10;99.90;;;;;;5052500;28;20544;-64
2022/03/13 03:51:26;;;;;;;32.90;21.63;;;0.10;99.90;;;;;;5052814;28;20456;-64
2022/03/13 03:53:53;;;;;;;32.37;22.10;;;0.10;99.90;;;;;;5052518;28;20471;-63
2022/03/13 03:56:20;;;;;;;30.07;20.30;;;0.10;99.90;;;;;;5052535;28;20582;-63
2022/03/13 03:58:48;;;;;;;33.30;22.00;;;0.10;99.90;;;;;;5052591;28;20450;-63
2022/03/13 04:01:15;;;;;;;31.93;22.93;;;0.10;99.90;;;;;;5052446;28;20486;-64
2022/03/13 04:03:42;;;;;;;29.80;20.93;;;0.20;99.90;;;;;;5052273;28;20432;-63
2022/03/13 04:06:10;;;;;;;26.83;20.57;;;0.20;99.90;;;;;;5052591;28;20496;-64
2022/03/13 04:08:37;;;;;;;28.90;22.33;;;0.20;99.90;;;;;;5052589;28;20444;-64
2022/03/13 04:11:04;;;;;;;27.50;20.67;;;0.20;99.90;;;;;;5052566;28;20527;-71
2022/03/13 04:13:33;;;;;;;29.00;20.93;;;0.10;99.90;;;;;;5052260;28;21000;-64
2022/03/13 04:15:59;;;;;;;29.87;21.57;;;0.00;99.90;;;;;;5051942;28;20472;-65
2022/03/13 04:18:26;;;;;;;30.40;21.50;;;0.00;99.90;;;;;;5051328;28;20444;-64
2022/03/13 04:20:53;;;;;;;33.30;21.50;;;-0.10;99.90;;;;;;5052267;28;20552;-64
2022/03/13 04:23:21;;;;;;;30.50;23.07;;;0.00;99.90;;;;;;5051974;28;20881;-64
2022/03/13 04:25:48;;;;;;;26.53;20.60;;;0.00;99.90;;;;;;5051727;28;20436;-65
2022/03/13 04:28:15;;;;;;;29.70;21.80;;;0.00;99.90;;;;;;5051726;28;20504;-64
2022/03/13 04:30:43;;;;;;;29.87;21.17;;;0.00;99.90;;;;;;5052104;28;20440;-64
2022/03/13 04:33:10;;;;;;;32.47;22.50;;;-0.20;99.90;;;;;;5051966;28;20460;-64
2022/03/13 04:35:36;;;;;;;33.87;20.73;;;-0.10;99.90;;;;;;5051864;28;20527;-64
2022/03/13 04:38:03;;;;;;;31.97;21.37;;;-0.10;99.90;;;;;;5052126;28;20440;-65
2022/03/13 04:40:31;;;;;;;29.73;22.40;;;-0.10;99.90;;;;;;5051774;28;20436;-64
2022/03/13 04:42:59;;;;;;;30.50;21.80;;;-0.20;99.90;;;;;;5051900;28;20543;-66
2022/03/13 04:45:26;;;;;;;29.57;21.07;;;-0.10;99.90;;;;;;5051543;28;20440;-65
2022/03/13 04:47:53;;;;;;;27.23;19.57;;;-0.10;99.90;;;;;;5051839;28;20448;-65
2022/03/13 04:50:20;;;;;;;34.37;21.93;;;-0.10;99.90;;;;;;5050805;28;21061;-66
2022/03/13 04:52:47;;;;;;;26.07;21.30;;;0.00;99.90;;;;;;5051547;28;20487;-65
2022/03/13 04:55:14;;;;;;;30.70;21.60;;;0.10;99.90;;;;;;5050744;28;20452;-65
2022/03/13 04:57:42;;;;;;;31.17;20.90;;;0.10;99.90;;;;;;5051798;28;20480;-64
2022/03/13 05:00:10;;;;;;;29.40;21.30;;;0.00;99.90;;;;;;5051759;28;20440;-65
2022/03/13 05:02:37;;;;;;;32.50;20.97;;;0.00;99.90;;;;;;5051469;28;20535;-64
2022/03/13 05:05:05;;;;;;;28.00;21.37;;;0.10;99.90;;;;;;5051954;28;20451;-65
2022/03/13 05:07:32;;;;;;;25.57;20.70;;;0.00;99.90;;;;;;5051715;28;20455;-67
2022/03/13 05:09:59;;;;;;;28.37;19.13;;;0.00;99.90;;;;;;5051714;28;20444;-65
2022/03/13 05:12:28;;;;;;;26.80;19.77;;;0.00;99.90;;;;;;5051489;28;20990;-67
2022/03/13 05:14:57;;;;;;;24.17;17.00;;;0.00;99.90;;;;;;5050934;28;20478;-65
2022/03/13 05:17:23;;;;;;;22.33;17.20;;;0.00;99.90;;;;;;5051350;28;20486;-65
2022/03/13 05:19:50;;;;;;;27.07;18.30;;;-0.20;99.90;;;;;;5051284;28;20531;-66
2022/03/13 05:22:17;;;;;;;29.43;18.77;;;-0.20;99.90;;;;;;5051329;28;20990;-64
2022/03/13 05:24:44;;;;;;;25.60;18.30;;;-0.10;99.90;;;;;;5050760;28;20448;-65
2022/03/13 05:27:11;;;;;;;26.20;19.57;;;0.00;99.90;;;;;;5051477;28;20428;-65
2022/03/13 05:29:38;;;;;;;22.03;15.60;;;0.00;99.90;;;;;;5050962;28;20443;-65
2022/03/13 05:32:07;;;;;;;20.03;15.00;;;-0.10;99.90;;;;;;5051067;28;20448;-64
2022/03/13 05:34:34;;;;;;;20.63;14.33;;;-0.10;99.90;;;;;;5050387;28;20523;-65
2022/03/13 05:37:01;;;;;;;17.43;14.33;;;-0.20;99.90;;;;;;5051301;28;21185;-64
2022/03/13 05:39:28;;;;;;;20.03;13.93;;;-0.20;99.90;;;;;;5053450;28;20539;-66
2022/03/13 05:41:55;;;;;;;17.73;13.17;;;-0.20;99.90;;;;;;5054015;28;20456;-65
2022/03/13 05:44:24;;;;;;;17.93;13.27;;;-0.20;99.90;;;;;;5053522;28;20443;-65
2022/03/13 05:46:51;;;;;;;19.37;13.37;;;-0.20;99.90;;;;;;5053116;28;20475;-67
2022/03/13 05:49:19;;;;;;;20.67;12.70;;;-0.10;99.90;;;;;;5051825;28;20487;-65
2022/03/13 05:51:46;;;;;;;18.27;12.33;;;0.00;99.90;;;;;;5051589;28;20826;-65
2022/03/13 05:54:13;;;;;;;16.90;12.40;;;0.00;99.90;;;;;;5050711;28;20484;-65
2022/03/13 05:56:41;;;;;;;14.27;10.60;;;0.00;99.90;;;;;;5050708;28;20490;-66
2022/03/13 05:59:10;;;;;;;17.17;13.17;;;0.10;99.90;;;;;;5050910;28;20474;-65
2022/03/13 06:01:38;;;;;;;20.57;12.67;;;0.20;99.90;;;;;;5050450;28;20466;-68
2022/03/13 06:04:06;;;;;;;14.97;11.57;;;0.20;99.90;;;;;;5049907;28;20498;-65
2022/03/13 06:06:34;;;;;;;15.30;11.37;;;0.30;99.90;;;;;;5050650;28;20440;-65
2022/03/13 06:09:01;;;;;;;15.70;11.60;;;0.30;99.90;;;;;;5050187;28;20498;-65
2022/03/13 06:11:27;;;;;;;17.27;11.87;;;0.30;99.90;;;;;;5050153;28;20462;-64
2022/03/13 06:13:54;;;;;;;17.30;11.87;;;0.40;99.90;;;;;;5050091;28;20450;-65
2022/03/13 06:16:22;;;;;;;14.67;10.93;;;0.40;99.90;;;;;;5049715;28;20575;-65
2022/03/13 06:18:49;;;;;;;15.03;10.87;;;0.40;99.90;;;;;;5050053;28;20967;-64
2022/03/13 06:21:15;;;;;;;17.57;12.10;;;0.50;99.90;;;;;;5049633;28;20463;-65
2022/03/13 06:23:44;;;;;;;17.60;11.10;;;0.50;99.90;;;;;;5049856;28;20955;-65
2022/03/13 06:26:11;;;;;;;14.30;10.10;;;0.70;99.90;;;;;;5049456;28;21007;-65
2022/03/13 06:28:38;;;;;;;14.23;11.00;;;0.80;99.90;;;;;;5049873;28;21018;-64
2022/03/13 06:31:04;;;;;;;13.43;10.00;;;1.00;99.90;;;;;;5049808;28;20530;-64
2022/03/13 06:33:31;;;;;;;14.10;10.80;;;1.00;99.90;;;;;;5051029;28;20842;-64
2022/03/13 06:35:58;;;;;;;11.77;10.43;;;1.10;99.90;;;;;;5049314;28;20440;-65
2022/03/13 06:38:25;;;;;;;14.07;11.37;;;1.20;99.90;;;;;;5049693;28;20440;-65
2022/03/13 06:40:53;;;;;;;13.40;9.80;;;1.30;99.90;;;;;;5051457;28;20439;-64
2022/03/13 06:43:21;;;;;;;14.43;11.60;;;1.40;99.90;;;;;;5053530;28;20459;-65
2022/03/13 06:45:47;;;;;;;11.90;10.47;;;1.50;99.90;;;;;;5053573;28;20479;-65
2022/03/13 06:48:15;;;;;;;12.30;9.93;;;1.60;99.90;;;;;;5053796;28;20809;-65
2022/03/13 06:50:43;;;;;;;22.93;10.90;;;1.70;99.90;;;;;;5053769;28;20446;-64
2022/03/13 06:53:10;;;;;;;13.40;9.40;;;1.80;99.90;;;;;;5053186;28;20831;-64
2022/03/13 06:55:37;;;;;;;13.50;10.33;;;1.90;99.90;;;;;;5052946;28;20443;-63
2022/03/13 06:58:05;;;;;;;11.60;8.90;;;2.00;99.90;;;;;;5053476;28;20829;-65
2022/03/13 07:00:34;;;;;;;12.83;10.27;;;2.10;99.90;;;;;;5053302;28;20494;-64
2022/03/13 07:03:01;;;;;;;12.47;9.40;;;2.20;99.90;;;;;;5053232;28;20837;-64
2022/03/13 07:05:28;;;;;;;12.20;9.03;;;2.30;99.90;;;;;;5052920;28;20446;-64
2022/03/13 07:07:57;;;;;;;13.77;9.93;;;2.40;99.90;;;;;;5053196;28;20838;-64
2022/03/13 07:10:24;;;;;;;12.47;10.50;;;2.60;99.90;;;;;;5053284;28;20450;-63
2022/03/13 07:12:52;;;;;;;15.17;10.37;;;2.70;99.90;;;;;;5053437;28;20466;-64
2022/03/13 07:15:21;;;;;;;12.73;9.80;;;2.90;99.90;;;;;;5053173;28;20439;-64
2022/03/13 07:17:47;;;;;;;10.80;9.40;;;3.10;99.90;;;;;;5053337;28;20479;-64
2022/03/13 07:20:15;;;;;;;13.47;10.67;;;3.30;99.90;;;;;;5053264;28;20866;-65
2022/03/13 07:22:44;;;;;;;17.57;12.97;;;3.40;99.90;;;;;;5053066;28;20498;-64
2022/03/13 07:25:12;;;;;;;13.87;10.90;;;3.40;99.90;;;;;;5053001;28;20557;-64
2022/03/13 07:27:40;;;;;;;12.90;11.20;;;3.60;99.90;;;;;;5053008;28;20926;-64
2022/03/13 07:30:11;;;;;;;15.33;10.23;;;3.70;99.90;;;;;;5052706;28;20917;-64
2022/03/13 07:32:40;;;;;;;14.33;10.20;;;3.80;99.90;;;;;;5053561;28;20460;-65
2022/03/13 07:35:07;;;;;;;13.37;10.50;;;3.90;99.90;;;;;;5052326;28;20472;-64
2022/03/13 07:37:34;;;;;;;13.83;11.57;;;4.00;99.90;;;;;;5052531;28;20475;-65
2022/03/13 07:40:01;;;;;;;14.40;11.30;;;4.10;99.90;;;;;;5052449;28;20442;-64
2022/03/13 07:42:28;;;;;;;17.00;13.13;;;4.30;99.90;;;;;;5052686;28;20475;-65
2022/03/13 07:44:55;;;;;;;15.20;12.63;;;4.50;99.90;;;;;;5052219;28;20440;-64
2022/03/13 07:47:22;;;;;;;16.67;12.70;;;4.50;99.90;;;;;;5046499;28;20953;-65
2022/03/13 07:49:51;;;;;;;17.20;12.90;;;4.60;99.90;;;;;;5056749;28;20443;-64
2022/03/13 07:52:18;;;;;;;14.63;12.07;;;4.80;99.90;;;;;;5057035;28;20483;-64
2022/03/13 07:54:45;;;;;;;14.43;11.70;;;5.00;99.90;;;;;;5051174;28;20455;-65
2022/03/13 07:57:11;;;;;;;17.77;13.60;;;5.10;99.90;;;;;;5052296;28;20501;-64
2022/03/13 07:59:38;;;;;;;16.27;13.30;;;5.30;99.90;;;;;;5051869;28;21059;-64
2022/03/13 08:02:05;;;;;;;17.80;13.13;;;5.40;99.90;;;;;;5052843;28;20472;-65
2022/03/13 08:04:33;;;;;;;17.07;14.27;;;5.50;99.90;;;;;;5051456;28;20444;-63
2022/03/13 08:07:01;;;;;;;17.07;13.27;;;5.60;99.60;;;;;;5052199;28;20436;-65
2022/03/13 08:09:28;;;;;;;21.13;14.53;;;5.90;99.80;;;;;;5051898;28;20446;-64
2022/03/13 08:11:55;;;;;;;18.30;13.33;;;5.90;99.70;;;;;;5051558;28;20452;-64
2022/03/13 08:14:22;;;;;;;17.23;13.90;;;6.10;99.50;;;;;;5051255;28;20450;-67
2022/03/13 08:16:48;;;;;;;16.50;13.83;;;6.30;98.60;;;;;;5057428;28;20476;-66
2022/03/13 08:19:15;;;;;;;15.10;12.70;;;6.40;97.50;;;;;;5051313;28;20888;-65
2022/03/13 08:21:42;;;;;;;19.13;15.10;;;6.50;96.20;;;;;;5054598;28;20539;-63
2022/03/13 08:24:13;;;;;;;16.17;13.13;;;6.70;96.30;;;;;;5050392;28;20967;-64
2022/03/13 08:26:41;;;;;;;17.30;13.17;;;6.80;95.60;;;;;;5056253;28;20497;-63
2022/03/13 08:29:08;;;;;;;16.57;12.50;;;6.90;94.00;;;;;;5053151;28;20454;-64
2022/03/13 08:31:35;;;;;;;17.53;13.00;;;7.00;94.70;;;;;;5054046;28;20476;-65
2022/03/13 08:34:07;;;;;;;16.57;12.00;;;7.30;94.90;;;;;;5053624;28;21146;-67
2022/03/13 08:36:34;;;;;;;19.17;12.73;;;7.50;93.10;;;;;;5058103;28;20976;-68
2022/03/13 08:39:01;;;;;;;16.33;11.83;;;7.70;92.40;;;;;;5056046;28;20487;-65
2022/03/13 08:41:29;;;;;;;15.60;12.47;;;8.00;91.40;;;;;;5054964;28;20466;-64
2022/03/13 08:43:56;;;;;;;17.00;12.13;;;8.20;91.00;;;;;;5050521;28;20476;-63
2022/03/13 08:46:23;;;;;;;16.43;12.63;;;8.40;90.50;;;;;;5050204;28;20852;-64
2022/03/13 08:48:50;;;;;;;20.83;13.93;;;8.60;90.20;;;;;;5050743;28;20436;-65
2022/03/13 08:51:18;;;;;;;15.23;11.97;;;8.80;90.00;;;;;;5050619;28;20503;-65
2022/03/13 08:53:45;;;;;;;16.63;13.80;;;9.20;89.10;;;;;;5049675;28;20482;-65
2022/03/13 08:56:13;;;;;;;17.00;11.83;;;9.50;87.10;;;;;;5032936;28;20441;-65
2022/03/13 08:58:41;;;;;;;19.87;12.97;;;9.80;85.40;;;;;;5030917;28;20512;-65
2022/03/13 09:01:09;;;;;;;18.93;14.50;;;10.10;83.30;;;;;;5031351;28;20440;-65
2022/03/13 09:03:36;;;;;;;15.63;12.90;;;10.20;83.20;;;;;;5030886;28;20528;-65
2022/03/13 09:06:03;;;;;;;18.40;13.67;;;10.50;81.70;;;;;;5049382;28;20460;-64
2022/03/13 09:08:30;;;;;;;19.30;14.40;;;10.70;82.20;;;;;;5050744;28;20524;-65
2022/03/13 09:10:56;;;;;;;19.20;14.27;;;11.00;81.20;;;;;;5050425;28;20977;-65
2022/03/13 09:13:23;;;;;;;18.23;15.10;;;11.20;78.80;;;;;;5050775;28;20443;-64
2022/03/13 09:15:52;;;;;;;19.70;15.40;;;11.70;79.00;;;;;;5050798;28;20462;-65
2022/03/13 09:18:19;;;;;;;21.83;16.57;;;12.10;76.70;;;;;;5050642;28;20487;-64
2022/03/13 09:20:46;;;;;;;20.60;16.00;;;12.60;75.60;;;;;;5050712;28;20436;-64
2022/03/13 09:23:12;;;;;;;18.33;15.30;;;12.90;73.00;;;;;;5050389;28;20460;-65
2022/03/13 09:25:40;;;;;;;17.67;15.17;;;13.40;72.60;;;;;;5050028;28;20539;-65
2022/03/13 09:28:07;;;;;;;20.23;15.57;;;13.60;70.40;;;;;;5050436;28;20791;-65
2022/03/13 09:30:33;;;;;;;21.10;15.70;;;13.90;69.70;;;;;;5050398;28;20467;-65
2022/03/13 09:33:02;;;;;;;22.70;17.83;;;14.20;69.70;;;;;;5050340;28;20460;-65
2022/03/13 09:35:29;;;;;;;20.17;17.97;;;14.30;68.30;;;;;;5050186;28;20448;-65
2022/03/13 09:37:55;;;;;;;20.83;17.57;;;14.50;66.50;;;;;;5050153;28;20483;-65
2022/03/13 09:40:22;;;;;;;19.27;17.03;;;14.60;67.50;;;;;;5047241;28;20953;-65
2022/03/13 09:42:49;;;;;;;21.37;16.90;;;14.60;66.50;;;;;;5041464;28;20543;-64
2022/03/13 09:45:17;;;;;;;20.93;18.67;;;14.60;67.80;;;;;;5045552;28;20440;-65
2022/03/13 09:47:44;;;;;;;19.97;16.77;;;14.60;65.70;;;;;;5050083;28;20487;-65
2022/03/13 09:50:12;;;;;;;21.60;16.53;;;14.70;65.80;;;;;;5050099;28;20436;-65
2022/03/13 09:52:40;;;;;;;20.57;18.40;;;15.00;66.30;;;;;;5050089;28;20486;-65
2022/03/13 09:55:09;;;;;;;20.60;17.80;;;15.30;64.10;;;;;;5049269;28;20967;-65
2022/03/13 09:57:36;;;;;;;22.37;17.63;;;15.40;62.00;;;;;;5050001;28;21034;-65
2022/03/13 10:00:06;;;;;;;20.93;17.60;;;15.70;63.00;;;;;;5050102;28;20440;-65
2022/03/13 10:02:34;;;;;;;21.07;18.60;;;15.80;60.50;;;;;;5049634;28;20468;-66
2022/03/13 10:05:06;;;;;;;18.93;16.93;;;16.20;61.10;;;;;;5049580;28;20494;-64
2022/03/13 10:07:55;;;;;;;26.13;20.17;;;16.30;60.90;;;;;;5049571;28;20812;-65
2022/03/13 10:10:23;;;;;;;20.27;17.90;;;16.40;59.70;;;;;;5049666;28;20853;-65
2022/03/13 10:12:50;;;;;;;22.00;19.03;;;16.80;59.50;;;;;;5048862;28;20472;-65
2022/03/13 10:15:17;;;;;;;25.80;20.77;;;17.10;58.90;;;;;;5048549;28;20463;-65
2022/03/13 10:17:44;;;;;;;20.37;18.27;;;17.20;57.30;;;;;;5049119;28;20488;-65
2022/03/13 10:20:17;;;;;;;22.23;18.90;;;17.00;58.50;;;;;;5049631;28;20690;-64
2022/03/13 10:22:47;;;;;;;21.60;18.40;;;17.20;59.00;;;;;;5049757;28;20472;-68
2022/03/13 10:25:15;;;;;;;24.67;20.60;;;17.60;56.90;;;;;;5049131;28;20543;-65
2022/03/13 10:27:43;;;;;;;21.53;19.00;;;17.20;56.10;;;;;;5051611;28;20451;-65
2022/03/13 10:30:11;;;;;;;22.47;19.23;;;16.70;59.30;;;;;;5042341;28;20436;-65
2022/03/13 10:32:38;;;;;;;20.70;18.50;;;16.90;58.80;;;;;;5048365;28;20846;-65
2022/03/13 10:35:06;;;;;;;21.60;17.13;;;17.40;58.30;;;;;;5048731;28;20593;-66
2022/03/13 10:37:35;;;;;;;21.47;19.20;;;17.70;56.20;;;;;;5049723;28;20490;-66
2022/03/13 10:40:21;;;;;;;23.47;20.53;;;18.30;56.60;;;;;;5049112;28;20437;-66
2022/03/13 10:42:50;;;;;;;20.03;17.93;;;18.90;56.00;;;;;;5049265;28;21017;-65
2022/03/13 10:45:36;;;;;;;22.77;18.90;;;19.50;54.70;;;;;;5049321;28;20448;-66
2022/03/13 10:48:19;;;;;;;23.57;19.20;;;20.00;53.90;;;;;;5049590;28;20489;-66
2022/03/13 10:50:47;;;;;;;24.30;19.13;;;20.50;53.40;;;;;;5049350;28;20450;-66
2022/03/13 10:53:14;;;;;;;21.10;18.80;;;20.30;50.50;;;;;;5048982;28;20865;-65
2022/03/13 10:55:42;;;;;;;22.73;19.73;;;19.90;52.20;;;;;;5049090;28;20995;-65
2022/03/13 10:58:09;;;;;;;21.87;19.53;;;19.80;52.40;;;;;;5049450;28;20494;-66
2022/03/13 11:00:36;;;;;;;20.03;18.00;;;20.00;52.30;;;;;;5049308;28;20932;-65
2022/03/13 11:03:11;;;;;;;21.17;18.97;;;20.30;52.10;;;;;;5049287;28;20472;-66
2022/03/13 11:05:38;;;;;;;21.60;19.30;;;20.50;50.10;;;;;;5048773;28;20451;-66
2022/03/13 11:08:05;;;;;;;23.77;20.80;;;20.70;51.60;;;;;;5049112;28;20439;-66
2022/03/13 11:10:32;;;;;;;20.97;18.87;;;21.40;50.30;;;;;;5049120;28;20448;-66
2022/03/13 11:13:02;;;;;;;21.87;19.27;;;21.40;48.80;;;;;;5049065;28;20855;-66
2022/03/13 11:15:30;;;;;;;21.37;19.17;;;21.70;48.90;;;;;;5048697;28;20443;-66
2022/03/13 11:17:57;;;;;;;23.63;21.13;;;22.30;49.60;;;;;;5049067;28;20479;-65
2022/03/13 11:20:26;;;;;;;23.87;21.37;;;22.50;48.40;;;;;;5048982;28;20960;-66
2022/03/13 11:22:52;;;;;;;24.27;21.87;;;22.60;48.40;;;;;;5049431;28;20460;-65
2022/03/13 11:25:21;;;;;;;23.77;21.43;;;23.10;47.80;;;;;;5049283;28;20450;-66
2022/03/13 11:27:48;;;;;;;24.47;21.70;;;23.60;46.70;;;;;;5052484;28;20485;-66
2022/03/13 11:30:17;;;;;;;24.23;21.63;;;23.40;47.00;;;;;;5052860;28;20881;-66
2022/03/13 11:32:50;;;;;;;24.93;22.43;;;23.40;46.80;;;;;;5052426;28;20476;-67
2022/03/13 11:35:30;;;;;;;24.47;21.00;;;23.80;46.40;;;;;;5052263;28;20454;-67
2022/03/13 11:38:17;;;;;;;23.03;20.63;;;23.70;45.00;;;;;;5052782;28;20480;-67
2022/03/13 11:40:44;;;;;;;23.07;20.60;;;24.10;45.50;;;;;;5053222;28;20448;-67
2022/03/13 11:43:13;;;;;;;24.90;21.80;;;24.70;43.30;;;;;;5056226;28;21039;-67
2022/03/13 11:45:42;;;;;;;24.30;21.90;;;24.70;42.90;;;;;;5056074;28;21176;-67
2022/03/13 11:48:43;;;;;;;21.97;19.90;;;25.20;43.50;;;;;;5056456;28;20446;-67
2022/03/13 11:51:11;;;;;;;25.23;22.53;;;25.40;43.10;;;;;;5057869;28;20454;-66
2022/03/13 11:53:48;;;;;;;23.07;20.70;;;25.60;41.50;;;;;;5055474;28;20451;-66
2022/03/13 11:56:27;;;;;;;25.03;22.33;;;24.40;41.70;;;;;;5033290;28;20985;-65
2022/03/13 11:58:55;;;;;;;24.00;20.83;;;24.30;42.80;;;;;;5033465;28;20485;-66
2022/03/13 12:01:37;;;;;;;24.50;22.00;;;24.30;43.40;;;;;;5033626;28;20548;-65
2022/03/13 12:04:26;;;;;;;23.50;21.00;;;23.70;43.80;;;;;;5033026;28;20520;-66
2022/03/13 12:06:56;;;;;;;25.43;22.30;;;23.90;44.60;;;;;;5033074;28;20506;-66
2022/03/13 12:09:31;;;;;;;24.70;21.80;;;24.30;41.60;;;;;;5032677;28;21038;-66
2022/03/13 12:12:03;;;;;;;23.73;21.47;;;24.80;43.40;;;;;;5032428;28;20855;-66
2022/03/13 12:15:01;;;;;;;22.90;20.50;;;25.10;43.20;;;;;;5031809;28;20824;-66
2022/03/13 12:17:31;;;;;;;26.10;22.23;;;25.90;41.70;;;;;;5032171;28;20798;-66
2022/03/13 12:19:59;;;;;;;24.47;21.90;;;26.40;41.30;;;;;;5031969;28;20477;-65
2022/03/13 12:22:29;;;;;;;25.30;22.70;;;26.80;40.50;;;;;;5053825;28;20467;-66
2022/03/13 12:24:59;;;;;;;24.13;21.73;;;27.30;40.40;;;;;;5051181;28;20456;-66
2022/03/13 12:27:27;;;;;;;24.60;21.67;;;27.70;38.60;;;;;;5052194;28;20531;-66
2022/03/13 12:29:56;;;;;;;24.13;21.50;;;27.50;39.70;;;;;;5052299;28;20452;-66
2022/03/13 12:32:32;;;;;;;24.07;21.57;;;27.70;38.40;;;;;;5052270;28;20470;-67
2022/03/13 12:34:59;;;;;;;25.40;22.57;;;27.70;38.10;;;;;;5051774;28;20853;-66
2022/03/13 12:37:27;;;;;;;22.73;20.47;;;28.00;37.20;;;;;;5051526;28;20444;-66
2022/03/13 12:39:57;;;;;;;23.10;20.80;;;28.20;37.50;;;;;;5051254;28;20491;-67